Troy Hills, New Jersey
Current Conditions -  °F | °C
As of 8:45 AM on Monday 20 Oct 2014 (Local Time) from KMMU Reporting Station
Broken Clouds Broken Clouds  
Wind Chill: 41°   Ceiling: 18000
Heat Index: 41°   Visibility: 25mi
Dew Point: 34°   Wind: 0mph
Humidity: 76%   Direction: NA
Pressure: 30.1"   Gusts: NA
Location:  40.8553°N, 74.3996°W
Report Text: KMMU 201245Z 00000KT 25SM BKN180 05/01 A3010
Loading
Personal Weather Stations






























Interactive Weather Map
Tropical Storm Tracking
New forecast layout! Learn more

10-Day Weather Forecast

Advertisements
Track Severe Weather on mobile